Saltillo, Nebraska
Current Conditions -  °F | °C
As of 5:54 AM on Thursday 29 Jan 2015 (Local Time) from KLNK Reporting Station
Overcast Overcast  
Wind Chill: 28°   Ceiling: 2400
Heat Index: 39°   Visibility: 10mi
Dew Point: 29°   Wind: 26mph
Humidity: 67%   Direction: 340°NNW
Pressure: 30.24"   Gusts: 39mph
Location:  40.6621°N, 96.6551°W
Report Text: KLNK 291154Z 34023G34KT 10SM OVC024 04/M02 A3024 RMK AO2 PK WND 34036/1134 SLP245 T00391017 10067 20033 53026
Loading
Personal Weather Stations






























Interactive Weather Map New forecast layout! Learn more

10-Day Weather Forecast

Advertisements
Track Severe Weather on mobile